sensor_id;sensor_type;location;lat;lon;timestamp;P1;durP1;ratioP1;P2;durP2;ratioP2
20283;SDS011;10301;50.832;4.080;2023-11-25T00:00:22;11.07;;;2.80;;
20283;SDS011;10301;50.832;4.080;2023-11-25T00:02:51;14.90;;;3.00;;
20283;SDS011;10301;50.832;4.080;2023-11-25T00:05:16;12.17;;;2.27;;
20283;SDS011;10301;50.832;4.080;2023-11-25T00:07:42;16.63;;;2.23;;
20283;SDS011;10301;50.832;4.080;2023-11-25T00:10:08;11.17;;;1.90;;
20283;SDS011;10301;50.832;4.080;2023-11-25T00:12:34;11.43;;;1.90;;
20283;SDS011;10301;50.832;4.080;2023-11-25T00:15:00;10.50;;;2.13;;
20283;SDS011;10301;50.832;4.080;2023-11-25T00:17:27;14.40;;;2.57;;
20283;SDS011;10301;50.832;4.080;2023-11-25T00:19:55;13.67;;;3.70;;
20283;SDS011;10301;50.832;4.080;2023-11-25T00:22:24;14.97;;;3.03;;
20283;SDS011;10301;50.832;4.080;2023-11-25T00:24:49;15.83;;;2.63;;
20283;SDS011;10301;50.832;4.080;2023-11-25T00:27:16;15.97;;;2.50;;
20283;SDS011;10301;50.832;4.080;2023-11-25T00:29:42;14.37;;;2.20;;
20283;SDS011;10301;50.832;4.080;2023-11-25T00:32:07;12.40;;;2.30;;
20283;SDS011;10301;50.832;4.080;2023-11-25T00:34:33;11.37;;;2.03;;
20283;SDS011;10301;50.832;4.080;2023-11-25T00:36:59;13.17;;;2.20;;
20283;SDS011;10301;50.832;4.080;2023-11-25T00:39:25;13.43;;;2.37;;
20283;SDS011;10301;50.832;4.080;2023-11-25T00:41:52;11.77;;;1.83;;
20283;SDS011;10301;50.832;4.080;2023-11-25T00:44:18;9.00;;;1.40;;
20283;SDS011;10301;50.832;4.080;2023-11-25T00:46:44;12.00;;;2.20;;
20283;SDS011;10301;50.832;4.080;2023-11-25T00:49:10;14.03;;;1.80;;
20283;SDS011;10301;50.832;4.080;2023-11-25T00:51:38;16.10;;;2.10;;
20283;SDS011;10301;50.832;4.080;2023-11-25T00:54:04;16.53;;;2.70;;
20283;SDS011;10301;50.832;4.080;2023-11-25T00:56:30;12.60;;;2.90;;
20283;SDS011;10301;50.832;4.080;2023-11-25T00:58:56;15.17;;;3.37;;
20283;SDS011;10301;50.832;4.080;2023-11-25T01:01:22;10.37;;;2.30;;
20283;SDS011;10301;50.832;4.080;2023-11-25T01:03:48;13.73;;;2.47;;
20283;SDS011;10301;50.832;4.080;2023-11-25T01:06:14;11.93;;;2.10;;
20283;SDS011;10301;50.832;4.080;2023-11-25T01:08:39;13.87;;;2.20;;
20283;SDS011;10301;50.832;4.080;2023-11-25T01:11:05;14.97;;;2.87;;
20283;SDS011;10301;50.832;4.080;2023-11-25T01:13:31;12.70;;;2.53;;
20283;SDS011;10301;50.832;4.080;2023-11-25T01:15:57;18.50;;;2.80;;
20283;SDS011;10301;50.832;4.080;2023-11-25T01:18:23;16.80;;;2.50;;
20283;SDS011;10301;50.832;4.080;2023-11-25T01:20:49;17.90;;;2.53;;
20283;SDS011;10301;50.832;4.080;2023-11-25T01:23:14;12.47;;;2.77;;
20283;SDS011;10301;50.832;4.080;2023-11-25T01:25:41;10.57;;;1.90;;
20283;SDS011;10301;50.832;4.080;2023-11-25T01:28:06;15.57;;;2.70;;
20283;SDS011;10301;50.832;4.080;2023-11-25T01:30:32;11.00;;;1.60;;
20283;SDS011;10301;50.832;4.080;2023-11-25T01:32:58;7.73;;;1.60;;
20283;SDS011;10301;50.832;4.080;2023-11-25T01:35:25;11.63;;;2.17;;
20283;SDS011;10301;50.832;4.080;2023-11-25T01:37:51;10.87;;;2.17;;
20283;SDS011;10301;50.832;4.080;2023-11-25T01:40:16;12.23;;;2.30;;
20283;SDS011;10301;50.832;4.080;2023-11-25T01:42:42;10.63;;;1.70;;
20283;SDS011;10301;50.832;4.080;2023-11-25T01:45:08;12.30;;;1.73;;
20283;SDS011;10301;50.832;4.080;2023-11-25T01:47:37;9.30;;;2.43;;
20283;SDS011;10301;50.832;4.080;2023-11-25T01:50:03;11.13;;;1.97;;
20283;SDS011;10301;50.832;4.080;2023-11-25T01:52:31;11.33;;;2.00;;
20283;SDS011;10301;50.832;4.080;2023-11-25T01:54:59;12.60;;;2.30;;
20283;SDS011;10301;50.832;4.080;2023-11-25T01:57:28;10.33;;;3.00;;
20283;SDS011;10301;50.832;4.080;2023-11-25T01:59:55;10.17;;;3.03;;
20283;SDS011;10301;50.832;4.080;2023-11-25T02:02:24;12.37;;;2.93;;
20283;SDS011;10301;50.832;4.080;2023-11-25T02:04:52;12.43;;;3.10;;
20283;SDS011;10301;50.832;4.080;2023-11-25T02:07:18;12.93;;;2.53;;
20283;SDS011;10301;50.832;4.080;2023-11-25T02:09:43;16.60;;;2.83;;
20283;SDS011;10301;50.832;4.080;2023-11-25T02:12:09;13.60;;;2.63;;
20283;SDS011;10301;50.832;4.080;2023-11-25T02:14:36;10.47;;;2.20;;
20283;SDS011;10301;50.832;4.080;2023-11-25T02:17:02;18.00;;;4.27;;
20283;SDS011;10301;50.832;4.080;2023-11-25T02:19:29;14.23;;;2.93;;
20283;SDS011;10301;50.832;4.080;2023-11-25T02:21:56;13.37;;;3.13;;
20283;SDS011;10301;50.832;4.080;2023-11-25T02:24:23;10.60;;;3.00;;
20283;SDS011;10301;50.832;4.080;2023-11-25T02:27:01;13.17;;;2.13;;
20283;SDS011;10301;50.832;4.080;2023-11-25T02:29:29;13.83;;;2.40;;
20283;SDS011;10301;50.832;4.080;2023-11-25T02:31:57;13.47;;;2.37;;
20283;SDS011;10301;50.832;4.080;2023-11-25T02:34:24;21.03;;;3.03;;
20283;SDS011;10301;50.832;4.080;2023-11-25T02:36:50;16.63;;;2.90;;
20283;SDS011;10301;50.832;4.080;2023-11-25T02:39:16;8.60;;;2.00;;
20283;SDS011;10301;50.832;4.080;2023-11-25T02:41:48;16.13;;;3.00;;
20283;SDS011;10301;50.832;4.080;2023-11-25T02:44:15;15.43;;;3.50;;
20283;SDS011;10301;50.832;4.080;2023-11-25T02:46:42;15.93;;;3.30;;
20283;SDS011;10301;50.832;4.080;2023-11-25T02:49:11;17.20;;;2.70;;
20283;SDS011;10301;50.832;4.080;2023-11-25T02:51:38;12.20;;;2.57;;
20283;SDS011;10301;50.832;4.080;2023-11-25T02:54:10;17.37;;;2.73;;
20283;SDS011;10301;50.832;4.080;2023-11-25T02:56:36;16.63;;;3.90;;
20283;SDS011;10301;50.832;4.080;2023-11-25T02:59:02;17.60;;;3.33;;
20283;SDS011;10301;50.832;4.080;2023-11-25T03:01:27;10.13;;;2.97;;
20283;SDS011;10301;50.832;4.080;2023-11-25T03:03:55;14.47;;;2.93;;
20283;SDS011;10301;50.832;4.080;2023-11-25T03:06:24;19.20;;;2.40;;
20283;SDS011;10301;50.832;4.080;2023-11-25T03:08:51;15.70;;;2.53;;
20283;SDS011;10301;50.832;4.080;2023-11-25T03:11:18;16.90;;;2.47;;
20283;SDS011;10301;50.832;4.080;2023-11-25T03:13:46;15.90;;;2.27;;
20283;SDS011;10301;50.832;4.080;2023-11-25T03:16:12;8.23;;;2.60;;
20283;SDS011;10301;50.832;4.080;2023-11-25T03:18:38;13.13;;;2.40;;
20283;SDS011;10301;50.832;4.080;2023-11-25T03:21:04;11.27;;;2.30;;
20283;SDS011;10301;50.832;4.080;2023-11-25T03:23:31;14.00;;;2.60;;
20283;SDS011;10301;50.832;4.080;2023-11-25T03:25:56;9.53;;;2.37;;
20283;SDS011;10301;50.832;4.080;2023-11-25T03:28:22;14.93;;;2.53;;
20283;SDS011;10301;50.832;4.080;2023-11-25T03:30:49;13.63;;;2.30;;
20283;SDS011;10301;50.832;4.080;2023-11-25T03:33:15;15.37;;;3.63;;
20283;SDS011;10301;50.832;4.080;2023-11-25T03:35:41;20.57;;;4.27;;
20283;SDS011;10301;50.832;4.080;2023-11-25T03:38:07;16.10;;;3.60;;
20283;SDS011;10301;50.832;4.080;2023-11-25T03:40:33;15.07;;;3.13;;
20283;SDS011;10301;50.832;4.080;2023-11-25T03:42:59;13.13;;;2.83;;
20283;SDS011;10301;50.832;4.080;2023-11-25T03:45:25;14.83;;;2.60;;
20283;SDS011;10301;50.832;4.080;2023-11-25T03:47:51;15.63;;;3.03;;
20283;SDS011;10301;50.832;4.080;2023-11-25T03:50:18;12.93;;;2.63;;
20283;SDS011;10301;50.832;4.080;2023-11-25T03:52:44;13.63;;;2.27;;
20283;SDS011;10301;50.832;4.080;2023-11-25T03:55:10;13.17;;;2.67;;
20283;SDS011;10301;50.832;4.080;2023-11-25T03:57:38;15.63;;;2.10;;
20283;SDS011;10301;50.832;4.080;2023-11-25T04:00:04;16.23;;;2.70;;
20283;SDS011;10301;50.832;4.080;2023-11-25T04:02:43;9.87;;;1.97;;
20283;SDS011;10301;50.832;4.080;2023-11-25T04:05:10;15.17;;;1.93;;
20283;SDS011;10301;50.832;4.080;2023-11-25T04:07:37;13.17;;;2.10;;
20283;SDS011;10301;50.832;4.080;2023-11-25T04:10:06;15.90;;;2.60;;
20283;SDS011;10301;50.832;4.080;2023-11-25T04:12:44;10.23;;;1.93;;
20283;SDS011;10301;50.832;4.080;2023-11-25T04:15:11;13.70;;;2.20;;
20283;SDS011;10301;50.832;4.080;2023-11-25T04:17:38;14.77;;;2.17;;
20283;SDS011;10301;50.832;4.080;2023-11-25T04:20:08;12.77;;;2.10;;
20283;SDS011;10301;50.832;4.080;2023-11-25T04:22:40;12.40;;;2.17;;
20283;SDS011;10301;50.832;4.080;2023-11-25T04:25:09;15.37;;;2.60;;
20283;SDS011;10301;50.832;4.080;2023-11-25T04:27:44;12.77;;;2.87;;
20283;SDS011;10301;50.832;4.080;2023-11-25T04:30:15;12.50;;;2.30;;
20283;SDS011;10301;50.832;4.080;2023-11-25T04:32:42;11.87;;;2.20;;
20283;SDS011;10301;50.832;4.080;2023-11-25T04:35:09;17.33;;;2.30;;
20283;SDS011;10301;50.832;4.080;2023-11-25T04:37:35;21.67;;;2.57;;
20283;SDS011;10301;50.832;4.080;2023-11-25T04:40:04;14.43;;;1.97;;
20283;SDS011;10301;50.832;4.080;2023-11-25T04:42:31;10.80;;;1.80;;
20283;SDS011;10301;50.832;4.080;2023-11-25T04:44:57;13.33;;;2.20;;
20283;SDS011;10301;50.832;4.080;2023-11-25T04:47:23;10.03;;;2.63;;
20283;SDS011;10301;50.832;4.080;2023-11-25T04:49:49;16.67;;;2.17;;
20283;SDS011;10301;50.832;4.080;2023-11-25T04:52:14;20.23;;;2.23;;
20283;SDS011;10301;50.832;4.080;2023-11-25T04:54:40;20.53;;;2.87;;
20283;SDS011;10301;50.832;4.080;2023-11-25T04:57:07;10.97;;;2.37;;
20283;SDS011;10301;50.832;4.080;2023-11-25T04:59:33;12.57;;;2.17;;
20283;SDS011;10301;50.832;4.080;2023-11-25T05:02:00;21.53;;;2.63;;
20283;SDS011;10301;50.832;4.080;2023-11-25T05:04:26;15.17;;;2.33;;
20283;SDS011;10301;50.832;4.080;2023-11-25T05:06:52;14.33;;;2.43;;
20283;SDS011;10301;50.832;4.080;2023-11-25T05:09:17;10.73;;;2.23;;
20283;SDS011;10301;50.832;4.080;2023-11-25T05:11:46;14.03;;;2.43;;
20283;SDS011;10301;50.832;4.080;2023-11-25T05:14:12;12.67;;;2.23;;
20283;SDS011;10301;50.832;4.080;2023-11-25T05:16:38;14.20;;;2.20;;
20283;SDS011;10301;50.832;4.080;2023-11-25T05:19:04;15.13;;;2.90;;
20283;SDS011;10301;50.832;4.080;2023-11-25T05:21:30;11.67;;;2.40;;
20283;SDS011;10301;50.832;4.080;2023-11-25T05:23:55;18.93;;;2.77;;
20283;SDS011;10301;50.832;4.080;2023-11-25T05:26:22;13.20;;;2.13;;
20283;SDS011;10301;50.832;4.080;2023-11-25T05:28:49;12.33;;;2.33;;
20283;SDS011;10301;50.832;4.080;2023-11-25T05:31:15;14.73;;;1.93;;
20283;SDS011;10301;50.832;4.080;2023-11-25T05:33:41;11.83;;;2.43;;
20283;SDS011;10301;50.832;4.080;2023-11-25T05:36:08;11.30;;;2.30;;
20283;SDS011;10301;50.832;4.080;2023-11-25T05:38:34;18.00;;;2.43;;
20283;SDS011;10301;50.832;4.080;2023-11-25T05:41:00;21.07;;;2.40;;
20283;SDS011;10301;50.832;4.080;2023-11-25T05:43:27;12.63;;;2.13;;
20283;SDS011;10301;50.832;4.080;2023-11-25T05:45:53;8.10;;;2.03;;
20283;SDS011;10301;50.832;4.080;2023-11-25T05:48:19;13.23;;;2.60;;
20283;SDS011;10301;50.832;4.080;2023-11-25T05:50:47;10.83;;;2.07;;
20283;SDS011;10301;50.832;4.080;2023-11-25T05:53:13;14.37;;;2.53;;
20283;SDS011;10301;50.832;4.080;2023-11-25T05:55:39;19.97;;;2.43;;
20283;SDS011;10301;50.832;4.080;2023-11-25T05:58:05;13.43;;;2.00;;
20283;SDS011;10301;50.832;4.080;2023-11-25T06:00:31;13.53;;;2.00;;
20283;SDS011;10301;50.832;4.080;2023-11-25T06:02:57;11.83;;;2.27;;
20283;SDS011;10301;50.832;4.080;2023-11-25T06:05:22;17.27;;;2.30;;
20283;SDS011;10301;50.832;4.080;2023-11-25T06:07:48;12.37;;;1.80;;
20283;SDS011;10301;50.832;4.080;2023-11-25T06:10:14;9.27;;;2.07;;
20283;SDS011;10301;50.832;4.080;2023-11-25T06:12:40;14.43;;;2.27;;
20283;SDS011;10301;50.832;4.080;2023-11-25T06:15:07;7.90;;;2.30;;
20283;SDS011;10301;50.832;4.080;2023-11-25T06:17:34;15.83;;;2.10;;
20283;SDS011;10301;50.832;4.080;2023-11-25T06:20:01;8.50;;;1.90;;
20283;SDS011;10301;50.832;4.080;2023-11-25T06:22:27;15.30;;;2.13;;
20283;SDS011;10301;50.832;4.080;2023-11-25T06:24:53;8.67;;;1.87;;
20283;SDS011;10301;50.832;4.080;2023-11-25T06:27:19;13.00;;;2.10;;
20283;SDS011;10301;50.832;4.080;2023-11-25T06:29:47;13.17;;;2.00;;
20283;SDS011;10301;50.832;4.080;2023-11-25T06:32:13;11.17;;;1.83;;
20283;SDS011;10301;50.832;4.080;2023-11-25T06:34:39;11.90;;;2.10;;
20283;SDS011;10301;50.832;4.080;2023-11-25T06:37:05;8.63;;;1.67;;
20283;SDS011;10301;50.832;4.080;2023-11-25T06:39:31;11.57;;;1.90;;
20283;SDS011;10301;50.832;4.080;2023-11-25T06:41:58;9.13;;;1.70;;
20283;SDS011;10301;50.832;4.080;2023-11-25T06:44:25;11.37;;;2.30;;
20283;SDS011;10301;50.832;4.080;2023-11-25T06:46:52;9.77;;;2.13;;
20283;SDS011;10301;50.832;4.080;2023-11-25T06:49:17;8.93;;;1.83;;
20283;SDS011;10301;50.832;4.080;2023-11-25T06:51:44;8.40;;;1.77;;
20283;SDS011;10301;50.832;4.080;2023-11-25T06:54:10;9.87;;;1.77;;
20283;SDS011;10301;50.832;4.080;2023-11-25T06:56:36;11.77;;;2.47;;
20283;SDS011;10301;50.832;4.080;2023-11-25T06:59:02;12.90;;;2.53;;
20283;SDS011;10301;50.832;4.080;2023-11-25T07:01:28;12.33;;;3.90;;
20283;SDS011;10301;50.832;4.080;2023-11-25T07:03:55;11.33;;;2.17;;
20283;SDS011;10301;50.832;4.080;2023-11-25T07:06:20;12.53;;;2.40;;
20283;SDS011;10301;50.832;4.080;2023-11-25T07:08:46;12.40;;;2.30;;
20283;SDS011;10301;50.832;4.080;2023-11-25T07:11:12;13.30;;;2.37;;
20283;SDS011;10301;50.832;4.080;2023-11-25T07:13:39;13.57;;;2.30;;
20283;SDS011;10301;50.832;4.080;2023-11-25T07:16:06;12.80;;;3.93;;
20283;SDS011;10301;50.832;4.080;2023-11-25T07:18:35;16.13;;;4.60;;
20283;SDS011;10301;50.832;4.080;2023-11-25T07:21:01;19.60;;;5.40;;
20283;SDS011;10301;50.832;4.080;2023-11-25T07:23:27;21.17;;;6.70;;
20283;SDS011;10301;50.832;4.080;2023-11-25T07:25:53;16.97;;;5.00;;
20283;SDS011;10301;50.832;4.080;2023-11-25T07:28:21;21.37;;;4.93;;
20283;SDS011;10301;50.832;4.080;2023-11-25T07:30:48;14.27;;;3.87;;
20283;SDS011;10301;50.832;4.080;2023-11-25T07:33:14;13.73;;;3.93;;
20283;SDS011;10301;50.832;4.080;2023-11-25T07:35:40;11.20;;;3.67;;
20283;SDS011;10301;50.832;4.080;2023-11-25T07:38:06;7.23;;;2.00;;
20283;SDS011;10301;50.832;4.080;2023-11-25T07:40:32;11.07;;;2.33;;
20283;SDS011;10301;50.832;4.080;2023-11-25T07:42:59;11.77;;;3.00;;
20283;SDS011;10301;50.832;4.080;2023-11-25T07:45:25;13.07;;;3.47;;
20283;SDS011;10301;50.832;4.080;2023-11-25T07:47:51;10.70;;;2.67;;
20283;SDS011;10301;50.832;4.080;2023-11-25T07:50:18;9.20;;;1.90;;
20283;SDS011;10301;50.832;4.080;2023-11-25T07:52:44;9.47;;;2.07;;
20283;SDS011;10301;50.832;4.080;2023-11-25T07:55:10;8.03;;;1.60;;
20283;SDS011;10301;50.832;4.080;2023-11-25T07:57:36;7.33;;;1.77;;
20283;SDS011;10301;50.832;4.080;2023-11-25T08:00:02;7.57;;;1.73;;
20283;SDS011;10301;50.832;4.080;2023-11-25T08:02:32;10.20;;;2.23;;
20283;SDS011;10301;50.832;4.080;2023-11-25T08:04:57;9.73;;;1.77;;
20283;SDS011;10301;50.832;4.080;2023-11-25T08:07:23;5.53;;;1.93;;
20283;SDS011;10301;50.832;4.080;2023-11-25T08:09:49;17.37;;;4.33;;
20283;SDS011;10301;50.832;4.080;2023-11-25T08:12:15;12.23;;;3.33;;
20283;SDS011;10301;50.832;4.080;2023-11-25T08:14:40;16.50;;;4.70;;
20283;SDS011;10301;50.832;4.080;2023-11-25T08:17:06;9.40;;;3.00;;
20283;SDS011;10301;50.832;4.080;2023-11-25T08:19:32;12.03;;;2.60;;
20283;SDS011;10301;50.832;4.080;2023-11-25T08:21:57;12.50;;;3.23;;
20283;SDS011;10301;50.832;4.080;2023-11-25T08:24:23;11.37;;;2.50;;
20283;SDS011;10301;50.832;4.080;2023-11-25T08:26:49;8.37;;;2.00;;
20283;SDS011;10301;50.832;4.080;2023-11-25T08:29:15;8.17;;;1.53;;
20283;SDS011;10301;50.832;4.080;2023-11-25T08:31:42;6.20;;;2.20;;
20283;SDS011;10301;50.832;4.080;2023-11-25T08:34:08;8.67;;;2.90;;
20283;SDS011;10301;50.832;4.080;2023-11-25T08:36:40;6.77;;;1.90;;
20283;SDS011;10301;50.832;4.080;2023-11-25T08:39:19;6.13;;;1.73;;
20283;SDS011;10301;50.832;4.080;2023-11-25T08:41:46;8.70;;;1.40;;
20283;SDS011;10301;50.832;4.080;2023-11-25T08:44:12;8.13;;;1.70;;
20283;SDS011;10301;50.832;4.080;2023-11-25T08:46:41;5.07;;;1.40;;
20283;SDS011;10301;50.832;4.080;2023-11-25T08:49:08;10.50;;;1.73;;
20283;SDS011;10301;50.832;4.080;2023-11-25T08:51:36;4.47;;;1.10;;
20283;SDS011;10301;50.832;4.080;2023-11-25T08:54:04;7.37;;;1.60;;
20283;SDS011;10301;50.832;4.080;2023-11-25T08:56:30;9.13;;;3.33;;
20283;SDS011;10301;50.832;4.080;2023-11-25T08:59:00;7.07;;;1.67;;
20283;SDS011;10301;50.832;4.080;2023-11-25T09:01:36;8.53;;;1.73;;
20283;SDS011;10301;50.832;4.080;2023-11-25T09:04:07;9.57;;;1.97;;
20283;SDS011;10301;50.832;4.080;2023-11-25T09:06:33;9.37;;;1.73;;
20283;SDS011;10301;50.832;4.080;2023-11-25T09:09:02;10.07;;;2.63;;
20283;SDS011;10301;50.832;4.080;2023-11-25T09:11:28;5.50;;;1.40;;
20283;SDS011;10301;50.832;4.080;2023-11-25T09:13:54;6.63;;;1.30;;
20283;SDS011;10301;50.832;4.080;2023-11-25T09:16:20;6.03;;;1.53;;
20283;SDS011;10301;50.832;4.080;2023-11-25T09:18:46;7.17;;;1.53;;
20283;SDS011;10301;50.832;4.080;2023-11-25T09:21:11;7.77;;;1.30;;
20283;SDS011;10301;50.832;4.080;2023-11-25T09:23:38;4.50;;;1.30;;
20283;SDS011;10301;50.832;4.080;2023-11-25T09:26:04;6.73;;;1.23;;
20283;SDS011;10301;50.832;4.080;2023-11-25T09:28:30;7.57;;;1.60;;
20283;SDS011;10301;50.832;4.080;2023-11-25T09:30:55;8.17;;;1.90;;
20283;SDS011;10301;50.832;4.080;2023-11-25T09:33:22;7.77;;;1.60;;
20283;SDS011;10301;50.832;4.080;2023-11-25T09:35:48;10.93;;;2.20;;
20283;SDS011;10301;50.832;4.080;2023-11-25T09:38:13;9.77;;;2.17;;
20283;SDS011;10301;50.832;4.080;2023-11-25T09:40:39;6.40;;;2.00;;
20283;SDS011;10301;50.832;4.080;2023-11-25T09:43:05;7.17;;;1.47;;
20283;SDS011;10301;50.832;4.080;2023-11-25T09:45:30;6.70;;;1.40;;
20283;SDS011;10301;50.832;4.080;2023-11-25T09:47:57;8.50;;;1.80;;
20283;SDS011;10301;50.832;4.080;2023-11-25T09:50:22;5.77;;;1.97;;
20283;SDS011;10301;50.832;4.080;2023-11-25T09:52:49;6.47;;;1.77;;
20283;SDS011;10301;50.832;4.080;2023-11-25T09:55:16;6.57;;;1.50;;
20283;SDS011;10301;50.832;4.080;2023-11-25T09:57:47;5.27;;;1.40;;
20283;SDS011;10301;50.832;4.080;2023-11-25T10:00:17;5.90;;;1.60;;
20283;SDS011;10301;50.832;4.080;2023-11-25T10:02:47;4.03;;;1.13;;
20283;SDS011;10301;50.832;4.080;2023-11-25T10:05:20;7.33;;;1.23;;
20283;SDS011;10301;50.832;4.080;2023-11-25T10:07:47;5.43;;;1.13;;
20283;SDS011;10301;50.832;4.080;2023-11-25T10:10:12;8.27;;;2.10;;
20283;SDS011;10301;50.832;4.080;2023-11-25T10:12:41;8.20;;;2.20;;
20283;SDS011;10301;50.832;4.080;2023-11-25T10:15:08;9.80;;;2.40;;
20283;SDS011;10301;50.832;4.080;2023-11-25T10:17:35;9.93;;;1.93;;
20283;SDS011;10301;50.832;4.080;2023-11-25T10:20:08;12.03;;;1.70;;
20283;SDS011;10301;50.832;4.080;2023-11-25T10:22:47;6.17;;;1.80;;
20283;SDS011;10301;50.832;4.080;2023-11-25T10:25:18;4.17;;;1.27;;
20283;SDS011;10301;50.832;4.080;2023-11-25T10:27:44;7.03;;;1.67;;
20283;SDS011;10301;50.832;4.080;2023-11-25T10:30:14;8.13;;;2.90;;
20283;SDS011;10301;50.832;4.080;2023-11-25T10:32:40;7.00;;;0.90;;
20283;SDS011;10301;50.832;4.080;2023-11-25T10:35:07;4.33;;;1.20;;
20283;SDS011;10301;50.832;4.080;2023-11-25T10:37:39;3.70;;;1.40;;
20283;SDS011;10301;50.832;4.080;2023-11-25T10:40:10;4.70;;;1.70;;
20283;SDS011;10301;50.832;4.080;2023-11-25T10:42:41;6.13;;;2.20;;
20283;SDS011;10301;50.832;4.080;2023-11-25T10:45:17;3.93;;;1.53;;
20283;SDS011;10301;50.832;4.080;2023-11-25T10:47:46;5.93;;;1.83;;
20283;SDS011;10301;50.832;4.080;2023-11-25T10:50:12;4.90;;;1.57;;
20283;SDS011;10301;50.832;4.080;2023-11-25T10:52:38;3.90;;;1.40;;
20283;SDS011;10301;50.832;4.080;2023-11-25T10:55:08;4.93;;;2.00;;
20283;SDS011;10301;50.832;4.080;2023-11-25T10:57:34;4.17;;;2.07;;
20283;SDS011;10301;50.832;4.080;2023-11-25T11:00:01;8.03;;;1.73;;
20283;SDS011;10301;50.832;4.080;2023-11-25T11:02:46;3.67;;;1.50;;
20283;SDS011;10301;50.832;4.080;2023-11-25T11:05:32;6.23;;;1.90;;
20283;SDS011;10301;50.832;4.080;2023-11-25T11:13:24;6.40;;;1.70;;
20283;SDS011;10301;50.832;4.080;2023-11-25T11:15:57;4.23;;;1.33;;
20283;SDS011;10301;50.832;4.080;2023-11-25T11:18:28;6.30;;;1.20;;
20283;SDS011;10301;50.832;4.080;2023-11-25T11:21:00;9.10;;;1.70;;
20283;SDS011;10301;50.832;4.080;2023-11-25T11:23:27;3.70;;;1.33;;
20283;SDS011;10301;50.832;4.080;2023-11-25T11:34:43;8.90;;;1.80;;
20283;SDS011;10301;50.832;4.080;2023-11-25T11:37:08;8.53;;;1.70;;
20283;SDS011;10301;50.832;4.080;2023-11-25T11:47:53;10.17;;;2.03;;
20283;SDS011;10301;50.832;4.080;2023-11-25T11:50:22;11.17;;;2.37;;
20283;SDS011;10301;50.832;4.080;2023-11-25T12:03:11;8.00;;;2.33;;
20283;SDS011;10301;50.832;4.080;2023-11-25T12:05:37;12.33;;;2.40;;
20283;SDS011;10301;50.832;4.080;2023-11-25T12:08:03;10.67;;;2.03;;
20283;SDS011;10301;50.832;4.080;2023-11-25T12:10:30;9.77;;;2.30;;
20283;SDS011;10301;50.832;4.080;2023-11-25T12:12:56;9.40;;;2.57;;
20283;SDS011;10301;50.832;4.080;2023-11-25T12:15:22;12.30;;;2.50;;
20283;SDS011;10301;50.832;4.080;2023-11-25T12:17:50;13.90;;;2.77;;
20283;SDS011;10301;50.832;4.080;2023-11-25T12:20:18;8.60;;;2.70;;
20283;SDS011;10301;50.832;4.080;2023-11-25T12:22:44;18.33;;;3.70;;
20283;SDS011;10301;50.832;4.080;2023-11-25T12:25:10;15.77;;;2.80;;
20283;SDS011;10301;50.832;4.080;2023-11-25T12:27:52;11.40;;;3.10;;
20283;SDS011;10301;50.832;4.080;2023-11-25T12:30:35;13.27;;;2.40;;
20283;SDS011;10301;50.832;4.080;2023-11-25T12:33:02;12.40;;;2.70;;
20283;SDS011;10301;50.832;4.080;2023-11-25T12:35:35;11.83;;;2.60;;
20283;SDS011;10301;50.832;4.080;2023-11-25T12:38:02;11.17;;;2.80;;
20283;SDS011;10301;50.832;4.080;2023-11-25T12:40:31;10.27;;;2.10;;
20283;SDS011;10301;50.832;4.080;2023-11-25T12:42:57;8.97;;;2.20;;
20283;SDS011;10301;50.832;4.080;2023-11-25T12:45:29;11.10;;;2.07;;
20283;SDS011;10301;50.832;4.080;2023-11-25T12:48:01;8.47;;;1.63;;
20283;SDS011;10301;50.832;4.080;2023-11-25T12:50:28;10.87;;;2.03;;
20283;SDS011;10301;50.832;4.080;2023-11-25T12:53:02;11.57;;;2.10;;
20283;SDS011;10301;50.832;4.080;2023-11-25T12:55:42;10.77;;;1.70;;
20283;SDS011;10301;50.832;4.080;2023-11-25T12:58:09;8.03;;;2.30;;
20283;SDS011;10301;50.832;4.080;2023-11-25T13:00:41;8.40;;;1.90;;
20283;SDS011;10301;50.832;4.080;2023-11-25T13:06:03;9.37;;;2.47;;
20283;SDS011;10301;50.832;4.080;2023-11-25T13:08:34;9.13;;;2.13;;
20283;SDS011;10301;50.832;4.080;2023-11-25T13:11:06;9.33;;;2.57;;
20283;SDS011;10301;50.832;4.080;2023-11-25T13:13:36;15.93;;;2.50;;
20283;SDS011;10301;50.832;4.080;2023-11-25T13:16:04;9.97;;;2.27;;
20283;SDS011;10301;50.832;4.080;2023-11-25T13:18:31;8.70;;;2.83;;
20283;SDS011;10301;50.832;4.080;2023-11-25T13:20:57;18.47;;;3.00;;
20283;SDS011;10301;50.832;4.080;2023-11-25T13:23:26;12.67;;;4.97;;
20283;SDS011;10301;50.832;4.080;2023-11-25T13:25:52;13.70;;;3.33;;
20283;SDS011;10301;50.832;4.080;2023-11-25T13:28:18;13.63;;;2.53;;
20283;SDS011;10301;50.832;4.080;2023-11-25T13:30:44;12.17;;;2.47;;
20283;SDS011;10301;50.832;4.080;2023-11-25T13:33:10;10.77;;;2.13;;
20283;SDS011;10301;50.832;4.080;2023-11-25T13:35:41;16.10;;;2.80;;
20283;SDS011;10301;50.832;4.080;2023-11-25T13:38:07;10.00;;;2.53;;
20283;SDS011;10301;50.832;4.080;2023-11-25T13:40:34;13.33;;;2.33;;
20283;SDS011;10301;50.832;4.080;2023-11-25T13:43:03;10.70;;;2.60;;
20283;SDS011;10301;50.832;4.080;2023-11-25T13:45:30;9.90;;;2.43;;
20283;SDS011;10301;50.832;4.080;2023-11-25T13:47:56;8.33;;;1.87;;
20283;SDS011;10301;50.832;4.080;2023-11-25T13:50:23;11.90;;;2.40;;
20283;SDS011;10301;50.832;4.080;2023-11-25T13:52:50;10.90;;;2.20;;
20283;SDS011;10301;50.832;4.080;2023-11-25T13:55:16;8.50;;;2.13;;
20283;SDS011;10301;50.832;4.080;2023-11-25T13:57:43;11.00;;;2.17;;
20283;SDS011;10301;50.832;4.080;2023-11-25T14:00:10;6.43;;;2.40;;
20283;SDS011;10301;50.832;4.080;2023-11-25T14:02:36;13.83;;;3.23;;
20283;SDS011;10301;50.832;4.080;2023-11-25T14:05:02;8.80;;;2.53;;
20283;SDS011;10301;50.832;4.080;2023-11-25T14:07:33;15.67;;;2.60;;
20283;SDS011;10301;50.832;4.080;2023-11-25T14:10:03;10.73;;;2.43;;
20283;SDS011;10301;50.832;4.080;2023-11-25T14:12:30;9.93;;;1.73;;
20283;SDS011;10301;50.832;4.080;2023-11-25T14:14:56;8.77;;;2.57;;
20283;SDS011;10301;50.832;4.080;2023-11-25T14:17:23;10.43;;;2.40;;
20283;SDS011;10301;50.832;4.080;2023-11-25T14:19:51;14.10;;;2.23;;
20283;SDS011;10301;50.832;4.080;2023-11-25T14:22:17;8.20;;;2.10;;
20283;SDS011;10301;50.832;4.080;2023-11-25T14:24:44;9.43;;;1.80;;
20283;SDS011;10301;50.832;4.080;2023-11-25T14:27:10;8.23;;;1.60;;
20283;SDS011;10301;50.832;4.080;2023-11-25T14:29:36;5.90;;;1.63;;
20283;SDS011;10301;50.832;4.080;2023-11-25T14:32:03;8.37;;;1.77;;
20283;SDS011;10301;50.832;4.080;2023-11-25T14:34:29;12.23;;;1.73;;
20283;SDS011;10301;50.832;4.080;2023-11-25T14:36:55;7.67;;;1.53;;
20283;SDS011;10301;50.832;4.080;2023-11-25T14:39:21;8.80;;;1.50;;
20283;SDS011;10301;50.832;4.080;2023-11-25T14:41:58;7.67;;;2.00;;
20283;SDS011;10301;50.832;4.080;2023-11-25T14:44:25;11.40;;;1.83;;
20283;SDS011;10301;50.832;4.080;2023-11-25T14:46:51;8.73;;;3.40;;
20283;SDS011;10301;50.832;4.080;2023-11-25T14:49:17;7.17;;;1.43;;
20283;SDS011;10301;50.832;4.080;2023-11-25T14:51:43;8.57;;;2.10;;
20283;SDS011;10301;50.832;4.080;2023-11-25T14:54:09;5.57;;;1.90;;
20283;SDS011;10301;50.832;4.080;2023-11-25T14:56:34;9.77;;;2.00;;
20283;SDS011;10301;50.832;4.080;2023-11-25T14:59:01;11.23;;;2.40;;
20283;SDS011;10301;50.832;4.080;2023-11-25T15:01:30;12.77;;;2.60;;
20283;SDS011;10301;50.832;4.080;2023-11-25T15:03:56;15.60;;;3.00;;
20283;SDS011;10301;50.832;4.080;2023-11-25T15:06:22;12.63;;;2.20;;
20283;SDS011;10301;50.832;4.080;2023-11-25T15:08:48;13.40;;;2.50;;
20283;SDS011;10301;50.832;4.080;2023-11-25T15:11:14;13.53;;;4.63;;
20283;SDS011;10301;50.832;4.080;2023-11-25T15:13:40;12.47;;;3.77;;